createdAt,value
2018-03-29T00:01:29.468Z,93.46
2018-03-29T00:03:57.131Z,93.31
2018-03-29T00:06:24.798Z,93.23
2018-03-29T00:08:52.395Z,93.21
2018-03-29T00:11:21.146Z,93.24
2018-03-29T00:13:48.821Z,93.02
2018-03-29T00:16:16.826Z,92.87
2018-03-29T00:18:44.540Z,93.02
2018-03-29T00:21:12.203Z,93.04
2018-03-29T00:23:40.641Z,93.14
2018-03-29T00:26:08.269Z,93.80
2018-03-29T00:28:36.006Z,94.62
2018-03-29T00:31:03.673Z,94.74
2018-03-29T00:33:31.334Z,94.91
2018-03-29T00:35:58.997Z,94.41
2018-03-29T00:38:26.850Z,94.43
2018-03-29T00:40:54.653Z,94.90
2018-03-29T00:43:22.437Z,94.62
2018-03-29T00:45:50.285Z,95.09
2018-03-29T00:48:17.921Z,95.31
2018-03-29T00:50:45.709Z,94.75
2018-03-29T00:53:25.341Z,94.02
2018-03-29T00:55:53.033Z,93.63
2018-03-29T00:58:20.685Z,93.84
2018-03-29T01:00:48.291Z,93.86
2018-03-29T01:03:15.921Z,93.89
2018-03-29T01:05:43.574Z,93.76
2018-03-29T01:08:11.171Z,93.74
2018-03-29T01:10:38.850Z,93.76
2018-03-29T01:13:06.756Z,94.33
2018-03-29T01:15:34.600Z,94.84
2018-03-29T01:18:03.077Z,94.74
2018-03-29T01:20:30.689Z,94.02
2018-03-29T01:22:58.344Z,93.78
2018-03-29T01:25:25.970Z,93.82
2018-03-29T01:27:53.568Z,94.24
2018-03-29T01:30:21.943Z,94.73
2018-03-29T01:32:49.885Z,94.59
2018-03-29T01:35:17.762Z,94.46
2018-03-29T01:37:45.370Z,94.33
2018-03-29T01:40:13.194Z,94.86
2018-03-29T01:42:41.547Z,95.30
2018-03-29T01:45:09.204Z,95.38
2018-03-29T01:47:37.486Z,95.77
2018-03-29T01:50:05.158Z,94.67
2018-03-29T01:52:32.791Z,94.45
2018-03-29T01:55:00.678Z,94.91
2018-03-29T01:57:28.427Z,95.51
2018-03-29T01:59:56.200Z,95.27
2018-03-29T02:02:23.813Z,94.56
2018-03-29T02:04:51.580Z,93.87
2018-03-29T02:07:20.235Z,94.16
2018-03-29T02:09:48.681Z,94.89
2018-03-29T02:12:16.325Z,95.57
2018-03-29T02:14:44.010Z,95.41
2018-03-29T02:17:11.657Z,95.00
2018-03-29T02:19:39.309Z,94.78
2018-03-29T02:22:06.911Z,94.78
2018-03-29T02:24:34.660Z,95.04
2018-03-29T02:27:02.337Z,94.99
2018-03-29T02:29:30.826Z,94.55
2018-03-29T02:31:58.479Z,94.25
2018-03-29T02:34:26.152Z,94.51
2018-03-29T02:36:53.913Z,94.57
2018-03-29T02:39:21.506Z,94.38
2018-03-29T02:41:49.674Z,94.40
2018-03-29T02:44:18.052Z,94.99
2018-03-29T02:46:45.682Z,95.90
2018-03-29T02:49:13.335Z,95.94
2018-03-29T02:51:40.991Z,95.79
2018-03-29T02:54:08.763Z,95.35
2018-03-29T02:56:36.537Z,95.13
2018-03-29T02:59:04.193Z,95.23
2018-03-29T03:01:31.835Z,95.69
2018-03-29T03:03:59.423Z,95.16
2018-03-29T03:06:27.069Z,94.24
2018-03-29T03:08:55.389Z,94.13
2018-03-29T03:11:23.899Z,94.62
2018-03-29T03:13:52.105Z,94.70
2018-03-29T03:16:19.869Z,95.19
2018-03-29T03:18:47.532Z,95.17
2018-03-29T03:21:15.203Z,94.81
2018-03-29T03:23:43.763Z,94.75
2018-03-29T03:26:11.544Z,94.64
2018-03-29T03:28:39.171Z,94.83
2018-03-29T03:31:06.884Z,94.90
2018-03-29T03:33:34.514Z,94.33
2018-03-29T03:36:02.141Z,94.28
2018-03-29T03:38:29.920Z,95.05
2018-03-29T03:40:57.738Z,95.68
2018-03-29T03:43:25.599Z,96.10
2018-03-29T03:45:53.458Z,95.74
2018-03-29T03:48:21.095Z,94.98
2018-03-29T03:50:48.994Z,94.77
2018-03-29T03:53:16.850Z,94.51
2018-03-29T03:55:44.618Z,94.74
2018-03-29T03:58:12.215Z,94.92
2018-03-29T04:00:40.066Z,94.97
2018-03-29T04:03:07.680Z,93.64
2018-03-29T04:05:35.484Z,94.02
2018-03-29T04:08:03.090Z,94.50
2018-03-29T04:10:30.819Z,94.87
2018-03-29T04:12:58.645Z,95.20
2018-03-29T04:15:26.275Z,94.62
2018-03-29T04:17:53.881Z,94.46
2018-03-29T04:20:21.556Z,94.31
2018-03-29T04:22:49.394Z,94.97
2018-03-29T04:25:17.046Z,95.31
2018-03-29T04:27:44.620Z,94.88
2018-03-29T04:30:12.297Z,95.35
2018-03-29T04:32:40.795Z,95.63
2018-03-29T04:35:08.965Z,96.14
2018-03-29T04:37:37.360Z,96.25
2018-03-29T04:40:05.422Z,95.89
2018-03-29T04:42:33.473Z,95.71
2018-03-29T04:45:01.346Z,94.46
2018-03-29T04:47:29.771Z,94.32
2018-03-29T04:49:57.491Z,94.77
2018-03-29T04:52:25.577Z,95.13
2018-03-29T04:54:53.222Z,94.08
2018-03-29T04:57:21.002Z,93.08
2018-03-29T04:59:48.929Z,93.89
2018-03-29T05:02:17.296Z,94.66
2018-03-29T05:04:45.360Z,95.44
2018-03-29T05:07:13.089Z,95.36
2018-03-29T05:09:40.706Z,95.04
2018-03-29T05:12:08.616Z,95.37
2018-03-29T05:14:36.464Z,95.57
2018-03-29T05:17:04.146Z,95.47
2018-03-29T05:19:31.806Z,95.08
2018-03-29T05:21:59.479Z,94.84
2018-03-29T05:24:27.651Z,94.71
2018-03-29T05:26:55.644Z,94.89
2018-03-29T05:29:23.245Z,94.97
2018-03-29T05:31:50.923Z,95.02
2018-03-29T05:34:19.076Z,95.04
2018-03-29T05:36:47.288Z,94.91
2018-03-29T05:39:15.781Z,95.26
2018-03-29T05:41:43.635Z,95.98
2018-03-29T05:44:11.492Z,95.98
2018-03-29T05:46:39.822Z,95.95
2018-03-29T05:49:07.582Z,95.79
2018-03-29T05:51:35.414Z,95.79
2018-03-29T05:54:03.275Z,96.08
2018-03-29T05:56:31.531Z,96.18
2018-03-29T05:59:00.755Z,96.10
2018-03-29T06:01:28.518Z,96.22
2018-03-29T06:03:56.181Z,96.20
2018-03-29T06:06:24.029Z,96.05
2018-03-29T06:08:51.694Z,95.60
2018-03-29T06:11:19.581Z,95.55
2018-03-29T06:13:52.750Z,95.42
2018-03-29T06:16:20.670Z,95.53
2018-03-29T06:18:48.917Z,95.37
2018-03-29T06:21:16.587Z,95.53
2018-03-29T06:23:45.268Z,95.33
2018-03-29T06:26:12.919Z,95.56
2018-03-29T06:28:41.696Z,95.58
2018-03-29T06:31:09.551Z,95.64
2018-03-29T06:33:37.341Z,95.29
2018-03-29T06:36:05.799Z,95.43
2018-03-29T06:38:33.454Z,95.74
2018-03-29T06:41:01.253Z,95.67
2018-03-29T06:43:28.933Z,95.66
2018-03-29T06:45:57.383Z,95.64
2018-03-29T06:48:25.365Z,95.47
2018-03-29T06:50:53.555Z,95.46
2018-03-29T06:53:21.260Z,95.88
2018-03-29T06:55:48.923Z,96.06
2018-03-29T06:58:16.678Z,95.54
2018-03-29T07:00:44.396Z,95.32
2018-03-29T07:03:12.254Z,94.95
2018-03-29T07:05:40.308Z,95.68
2018-03-29T07:08:07.973Z,95.67
2018-03-29T07:10:35.660Z,94.77
2018-03-29T07:13:03.325Z,94.30
2018-03-29T07:15:31.036Z,93.47
2018-03-29T07:17:59.465Z,93.62
2018-03-29T07:20:27.263Z,93.59
2018-03-29T07:22:54.983Z,94.74
2018-03-29T07:25:22.589Z,95.15
2018-03-29T07:27:50.321Z,94.94
2018-03-29T07:30:17.996Z,93.59
2018-03-29T07:32:45.927Z,92.40
2018-03-29T07:35:13.767Z,91.82
2018-03-29T07:37:41.791Z,91.86
2018-03-29T07:40:09.649Z,91.50
2018-03-29T07:42:39.075Z,91.11
2018-03-29T07:45:07.160Z,90.78
2018-03-29T07:47:35.105Z,90.73
2018-03-29T07:50:02.943Z,90.58
2018-03-29T07:52:31.010Z,90.91
2018-03-29T07:54:59.529Z,91.07
2018-03-29T07:57:27.444Z,91.00
2018-03-29T07:59:55.224Z,91.62
2018-03-29T08:02:22.863Z,90.74
2018-03-29T08:04:50.771Z,89.16
2018-03-29T08:07:18.454Z,89.30
2018-03-29T08:09:47.093Z,89.53
2018-03-29T08:12:15.003Z,89.67
2018-03-29T08:14:43.379Z,88.13
2018-03-29T08:17:11.231Z,88.81
2018-03-29T08:19:38.866Z,88.65
2018-03-29T08:22:06.647Z,88.33
2018-03-29T08:24:35.054Z,88.48
2018-03-29T08:27:03.097Z,88.44
2018-03-29T08:29:31.293Z,88.42
2018-03-29T08:31:59.257Z,89.12
2018-03-29T08:34:27.595Z,88.29
2018-03-29T08:36:56.033Z,87.12
2018-03-29T08:39:25.377Z,85.69
2018-03-29T08:41:53.812Z,84.12
2018-03-29T08:44:21.880Z,84.29
2018-03-29T08:46:49.856Z,83.27
2018-03-29T08:49:17.608Z,84.50
2018-03-29T08:51:46.302Z,83.83
2018-03-29T08:54:14.602Z,84.84
2018-03-29T08:56:42.217Z,83.71
2018-03-29T08:59:09.845Z,80.89
2018-03-29T09:01:37.576Z,81.80
2018-03-29T09:04:05.415Z,82.76
2018-03-29T09:06:33.103Z,82.84
2018-03-29T09:09:00.781Z,82.16
2018-03-29T09:11:28.408Z,82.11
2018-03-29T09:13:56.073Z,80.55
2018-03-29T09:16:24.120Z,80.27
2018-03-29T09:18:51.807Z,79.46
2018-03-29T09:21:19.688Z,79.59
2018-03-29T09:23:48.545Z,79.17
2018-03-29T09:26:16.436Z,77.74
2018-03-29T09:28:45.134Z,79.04
2018-03-29T09:31:13.817Z,76.03
2018-03-29T09:33:41.654Z,76.16
2018-03-29T09:36:09.451Z,77.00
2018-03-29T09:38:37.208Z,75.13
2018-03-29T09:41:05.288Z,74.23
2018-03-29T09:43:32.884Z,75.09
2018-03-29T09:46:01.023Z,74.16
2018-03-29T09:48:29.536Z,71.70
2018-03-29T09:50:57.364Z,74.77
2018-03-29T09:53:25.030Z,72.98
2018-03-29T09:55:53.022Z,71.71
2018-03-29T09:58:20.762Z,73.19
2018-03-29T10:00:48.733Z,73.15
2018-03-29T10:03:22.996Z,74.14
2018-03-29T10:05:51.840Z,75.85
2018-03-29T10:08:19.676Z,77.22
2018-03-29T10:10:47.523Z,77.40
2018-03-29T10:13:16.146Z,78.15
2018-03-29T10:15:44.008Z,77.52
2018-03-29T10:18:12.098Z,77.88
2018-03-29T10:20:39.958Z,77.45
2018-03-29T10:23:07.884Z,77.48
2018-03-29T10:25:35.502Z,79.75
2018-03-29T10:28:03.336Z,77.89
2018-03-29T10:30:31.227Z,76.06
2018-03-29T10:32:59.101Z,77.78
2018-03-29T10:35:26.967Z,77.89
2018-03-29T10:37:54.570Z,78.85
2018-03-29T10:40:22.494Z,77.19
2018-03-29T10:42:50.421Z,76.96
2018-03-29T10:45:18.314Z,78.07
2018-03-29T10:47:45.993Z,78.77
2018-03-29T10:50:14.323Z,77.92
2018-03-29T10:52:42.312Z,77.31
2018-03-29T10:55:10.405Z,77.33
2018-03-29T10:57:38.275Z,76.79
2018-03-29T11:00:06.353Z,76.81
2018-03-29T11:02:34.426Z,77.41
2018-03-29T11:05:02.499Z,75.79
2018-03-29T11:07:30.972Z,75.92
2018-03-29T11:09:58.987Z,75.83
2018-03-29T11:12:26.724Z,75.65
2018-03-29T11:14:54.786Z,75.64
2018-03-29T11:17:22.856Z,75.02
2018-03-29T11:19:50.790Z,75.34
2018-03-29T11:22:18.458Z,74.96
2018-03-29T11:24:46.256Z,74.84
2018-03-29T11:27:14.926Z,74.83
2018-03-29T11:29:42.802Z,72.06
2018-03-29T11:32:10.474Z,71.76
2018-03-29T11:34:39.126Z,73.48
2018-03-29T11:37:07.230Z,76.26
2018-03-29T11:39:35.086Z,75.56
2018-03-29T11:42:02.949Z,75.42
2018-03-29T11:44:30.628Z,75.09
2018-03-29T11:46:59.013Z,74.83
2018-03-29T11:49:27.292Z,74.75
2018-03-29T11:51:55.258Z,74.76
2018-03-29T11:54:23.933Z,75.67
2018-03-29T11:56:52.208Z,77.21
2018-03-29T11:59:20.074Z,76.73
2018-03-29T12:01:47.985Z,76.76
2018-03-29T12:04:16.023Z,77.36
2018-03-29T12:06:44.501Z,76.17
2018-03-29T12:09:13.803Z,75.98
2018-03-29T12:11:42.041Z,77.17
2018-03-29T12:14:10.444Z,77.47
2018-03-29T12:16:38.101Z,77.85
2018-03-29T12:19:06.286Z,77.79
2018-03-29T12:21:33.961Z,78.23
2018-03-29T12:24:02.136Z,78.80
2018-03-29T12:26:29.723Z,78.05
2018-03-29T12:28:57.453Z,78.94
2018-03-29T12:31:25.796Z,79.80
2018-03-29T12:33:53.598Z,80.39
2018-03-29T12:36:21.244Z,80.53
2018-03-29T12:38:49.128Z,81.07
2018-03-29T12:41:17.471Z,81.18
2018-03-29T12:43:45.119Z,80.81
2018-03-29T12:46:12.758Z,82.42
2018-03-29T12:48:40.574Z,82.82
2018-03-29T12:51:08.290Z,83.02
2018-03-29T12:53:35.917Z,83.19
2018-03-29T12:56:03.636Z,84.56
2018-03-29T12:58:31.439Z,83.85
2018-03-29T13:00:59.341Z,83.96
2018-03-29T13:03:27.194Z,83.66
2018-03-29T13:05:55.172Z,84.02
2018-03-29T13:08:22.978Z,83.83
2018-03-29T13:10:50.666Z,84.02
2018-03-29T13:13:18.449Z,83.58
2018-03-29T13:15:46.089Z,83.93
2018-03-29T13:18:13.761Z,84.53
2018-03-29T13:20:41.634Z,85.54
2018-03-29T13:23:10.242Z,85.67
2018-03-29T13:25:38.728Z,86.23
2018-03-29T13:28:06.465Z,86.72
2018-03-29T13:30:34.147Z,86.33
2018-03-29T13:33:01.764Z,86.35
2018-03-29T13:35:29.450Z,87.00
2018-03-29T13:37:57.121Z,86.12
2018-03-29T13:40:24.762Z,85.08
2018-03-29T13:42:52.831Z,85.84
2018-03-29T13:45:21.038Z,86.56
2018-03-29T13:47:48.795Z,86.38
2018-03-29T13:50:16.864Z,87.02
2018-03-29T13:52:44.535Z,87.05
2018-03-29T13:55:12.907Z,86.88
2018-03-29T13:57:41.041Z,86.56
2018-03-29T14:00:09.462Z,86.77
2018-03-29T14:02:37.324Z,87.64
2018-03-29T14:05:04.966Z,87.11
2018-03-29T14:07:32.675Z,87.62
2018-03-29T14:10:00.400Z,88.39
2018-03-29T14:12:28.091Z,88.08
2018-03-29T14:14:55.886Z,88.30
2018-03-29T14:17:23.919Z,88.59
2018-03-29T14:19:52.550Z,88.35
2018-03-29T14:22:20.271Z,87.66
2018-03-29T14:24:47.941Z,86.49
2018-03-29T14:27:15.739Z,85.72
2018-03-29T14:29:43.378Z,85.11
2018-03-29T14:32:11.216Z,85.09
2018-03-29T14:34:38.941Z,85.94
2018-03-29T14:37:06.680Z,86.70
2018-03-29T14:39:34.377Z,87.04
2018-03-29T14:42:02.165Z,87.51
2018-03-29T14:44:29.896Z,87.23
2018-03-29T14:46:57.636Z,87.15
2018-03-29T14:49:25.379Z,87.47
2018-03-29T14:51:53.065Z,88.70
2018-03-29T14:54:22.233Z,87.62
2018-03-29T14:56:50.208Z,87.91
2018-03-29T14:59:18.375Z,88.06
2018-03-29T15:01:46.332Z,87.60
2018-03-29T15:04:14.194Z,87.46
2018-03-29T15:06:41.857Z,88.52
2018-03-29T15:09:09.526Z,88.24
2018-03-29T15:11:37.301Z,87.76
2018-03-29T15:14:05.888Z,87.80
2018-03-29T15:16:34.572Z,87.33
2018-03-29T15:19:02.437Z,87.05
2018-03-29T15:21:30.736Z,88.25
2018-03-29T15:23:59.607Z,88.54
2018-03-29T15:26:27.905Z,89.15
2018-03-29T15:28:56.013Z,89.50
2018-03-29T15:31:25.155Z,87.55
2018-03-29T15:33:53.022Z,87.73
2018-03-29T15:36:21.768Z,87.28
2018-03-29T15:38:49.786Z,86.64
2018-03-29T15:41:18.877Z,87.27
2018-03-29T15:43:46.815Z,87.02
2018-03-29T15:46:14.551Z,86.42
2018-03-29T15:48:43.866Z,86.71
2018-03-29T15:51:11.571Z,87.29
2018-03-29T15:53:39.191Z,87.15
2018-03-29T15:56:06.869Z,87.46
2018-03-29T15:58:34.758Z,88.00
2018-03-29T16:01:02.490Z,88.12
2018-03-29T16:03:30.085Z,88.34
2018-03-29T16:05:57.776Z,88.29
2018-03-29T16:08:25.494Z,87.70
2018-03-29T16:10:53.177Z,88.96
2018-03-29T16:13:20.981Z,89.63
2018-03-29T16:15:48.713Z,89.99
2018-03-29T16:18:16.397Z,90.36
2018-03-29T16:20:44.133Z,90.13
2018-03-29T16:23:11.775Z,89.97
2018-03-29T16:25:42.360Z,90.12
2018-03-29T16:28:10.727Z,90.06
2018-03-29T16:30:38.374Z,90.09
2018-03-29T16:33:06.152Z,90.19
2018-03-29T16:35:33.845Z,89.97
2018-03-29T16:38:02.444Z,90.12
2018-03-29T16:40:30.120Z,90.50
2018-03-29T16:42:57.781Z,90.75
2018-03-29T16:45:26.111Z,90.78
2018-03-29T16:47:53.791Z,91.20
2018-03-29T16:50:22.103Z,91.17
2018-03-29T16:52:49.851Z,90.99
2018-03-29T16:55:17.504Z,90.87
2018-03-29T16:57:45.384Z,90.83
2018-03-29T17:00:13.233Z,90.78
2018-03-29T17:02:40.926Z,90.97
2018-03-29T17:05:08.559Z,90.65
2018-03-29T17:07:36.314Z,90.57
2018-03-29T17:10:04.106Z,90.04
2018-03-29T17:12:31.794Z,90.30
2018-03-29T17:15:00.775Z,90.32
2018-03-29T17:17:28.444Z,90.76
2018-03-29T17:19:56.118Z,90.76
2018-03-29T17:22:23.795Z,90.77
2018-03-29T17:24:51.503Z,90.98
2018-03-29T17:27:19.362Z,91.21
2018-03-29T17:29:47.232Z,91.13
2018-03-29T17:32:14.989Z,91.36
2018-03-29T17:34:42.668Z,91.11
2018-03-29T17:37:10.339Z,91.50
2018-03-29T17:39:38.307Z,91.64
2018-03-29T17:42:06.040Z,91.63
2018-03-29T17:44:33.948Z,91.58
2018-03-29T17:47:02.421Z,91.37
2018-03-29T17:49:30.205Z,91.11
2018-03-29T17:51:57.997Z,91.72
2018-03-29T17:54:25.713Z,91.80
2018-03-29T17:56:53.556Z,91.78
2018-03-29T17:59:21.183Z,91.56
2018-03-29T18:01:48.889Z,91.64
2018-03-29T18:04:16.547Z,91.52
2018-03-29T18:06:44.260Z,91.63
2018-03-29T18:09:12.876Z,91.28
2018-03-29T18:11:40.582Z,91.12
2018-03-29T18:14:08.350Z,91.04
2018-03-29T18:16:36.413Z,90.84
2018-03-29T18:19:04.214Z,91.35
2018-03-29T18:21:31.957Z,92.36
2018-03-29T18:23:59.839Z,92.48
2018-03-29T18:26:27.677Z,91.63
2018-03-29T18:28:55.400Z,91.36
2018-03-29T18:31:23.292Z,91.22
2018-03-29T18:33:51.146Z,90.95
2018-03-29T18:36:19.602Z,91.18
2018-03-29T18:38:47.348Z,91.51
2018-03-29T18:41:15.286Z,91.57
2018-03-29T18:43:43.045Z,91.52
2018-03-29T18:46:10.815Z,91.22
2018-03-29T18:48:38.535Z,91.21
2018-03-29T18:51:06.342Z,91.00
2018-03-29T18:53:33.998Z,91.39
2018-03-29T18:56:05.365Z,91.33
2018-03-29T18:58:33.158Z,92.11
2018-03-29T19:01:01.941Z,92.54
2018-03-29T19:03:29.700Z,92.28
2018-03-29T19:05:57.388Z,91.86
2018-03-29T19:08:25.041Z,91.12
2018-03-29T19:10:53.254Z,90.88
2018-03-29T19:13:21.200Z,90.90
2018-03-29T19:15:48.863Z,91.45
2018-03-29T19:18:18.228Z,91.15
2018-03-29T19:20:46.798Z,91.02
2018-03-29T19:23:14.563Z,91.06
2018-03-29T19:25:43.035Z,91.12
2018-03-29T19:28:10.817Z,91.59
2018-03-29T19:30:38.607Z,91.77
2018-03-29T19:33:06.440Z,91.66
2018-03-29T19:35:34.145Z,91.97
2018-03-29T19:38:01.769Z,92.53
2018-03-29T19:40:29.715Z,92.73
2018-03-29T19:42:57.356Z,92.41
2018-03-29T19:45:25.005Z,92.53
2018-03-29T19:47:53.675Z,92.34
2018-03-29T19:50:21.443Z,92.52
2018-03-29T19:52:49.146Z,92.29
2018-03-29T19:55:16.748Z,91.95
2018-03-29T19:57:44.654Z,92.00
2018-03-29T20:00:12.327Z,92.04
2018-03-29T20:02:39.990Z,92.56
2018-03-29T20:05:07.824Z,92.24
2018-03-29T20:07:35.527Z,92.04
2018-03-29T20:10:03.153Z,92.30
2018-03-29T20:12:30.859Z,92.30
2018-03-29T20:14:59.073Z,92.25
2018-03-29T20:17:27.056Z,92.23
2018-03-29T20:19:54.772Z,92.42
2018-03-29T20:22:22.600Z,92.78
2018-03-29T20:24:50.255Z,92.82
2018-03-29T20:27:18.020Z,92.95
2018-03-29T20:29:45.701Z,92.15
2018-03-29T20:32:13.495Z,91.20
2018-03-29T20:34:41.410Z,91.68
2018-03-29T20:37:09.160Z,91.46
2018-03-29T20:39:36.990Z,91.82
2018-03-29T20:42:04.669Z,92.08
2018-03-29T20:44:32.416Z,92.18
2018-03-29T20:47:00.238Z,93.65
2018-03-29T20:49:27.964Z,93.51
2018-03-29T20:51:55.687Z,92.90
2018-03-29T20:54:23.374Z,93.23
2018-03-29T20:56:51.202Z,92.91
2018-03-29T20:59:18.961Z,92.60
2018-03-29T21:01:46.599Z,92.63
2018-03-29T21:04:14.488Z,92.06
2018-03-29T21:06:42.167Z,91.54
2018-03-29T21:09:09.810Z,91.62
2018-03-29T21:11:37.422Z,91.86
2018-03-29T21:14:05.136Z,92.15
2018-03-29T21:16:32.738Z,92.85
2018-03-29T21:19:00.525Z,92.97
2018-03-29T21:21:28.252Z,92.81
2018-03-29T21:23:55.920Z,92.47
2018-03-29T21:26:23.588Z,92.60
2018-03-29T21:28:51.221Z,93.21
2018-03-29T21:31:18.880Z,93.67
2018-03-29T21:33:46.507Z,93.55
2018-03-29T21:36:14.173Z,93.56
2018-03-29T21:38:41.853Z,93.45
2018-03-29T21:41:09.520Z,93.29
2018-03-29T21:43:38.185Z,93.35
2018-03-29T21:46:05.990Z,93.15
2018-03-29T21:48:33.597Z,93.53
2018-03-29T21:51:01.311Z,93.44
2018-03-29T21:53:29.035Z,93.29
2018-03-29T21:55:56.623Z,93.16
2018-03-29T21:58:24.308Z,93.18
2018-03-29T22:00:51.938Z,93.00
2018-03-29T22:03:19.653Z,93.23
2018-03-29T22:05:47.276Z,93.29
2018-03-29T22:08:14.936Z,93.50
2018-03-29T22:10:42.642Z,93.45
2018-03-29T22:13:10.417Z,93.87
2018-03-29T22:15:38.039Z,93.93
2018-03-29T22:18:05.731Z,94.09
2018-03-29T22:20:33.483Z,93.67
2018-03-29T22:23:01.071Z,93.42
2018-03-29T22:25:28.763Z,93.19
2018-03-29T22:27:56.363Z,92.91
2018-03-29T22:30:23.995Z,93.24
2018-03-29T22:32:51.612Z,93.69
2018-03-29T22:35:19.244Z,93.54
2018-03-29T22:37:46.941Z,93.27
2018-03-29T22:40:14.594Z,93.13
2018-03-29T22:42:42.220Z,93.59
2018-03-29T22:45:09.873Z,93.53
2018-03-29T22:47:38.601Z,93.23
2018-03-29T22:50:06.261Z,93.42
2018-03-29T22:52:33.880Z,93.50
2018-03-29T22:55:01.545Z,93.54
2018-03-29T22:57:29.141Z,93.62
2018-03-29T22:59:56.808Z,93.68
2018-03-29T23:02:24.425Z,93.47
2018-03-29T23:04:52.053Z,93.22
2018-03-29T23:07:19.729Z,93.51
2018-03-29T23:09:47.317Z,93.63
2018-03-29T23:12:14.953Z,93.67
2018-03-29T23:14:42.583Z,93.81
2018-03-29T23:17:10.240Z,93.63
2018-03-29T23:19:37.896Z,94.01
2018-03-29T23:22:05.485Z,93.89
2018-03-29T23:24:33.144Z,93.72
2018-03-29T23:27:00.800Z,93.49
2018-03-29T23:29:28.465Z,93.22
2018-03-29T23:31:56.065Z,93.27
2018-03-29T23:34:23.734Z,93.24
2018-03-29T23:36:51.407Z,93.09
2018-03-29T23:39:18.999Z,93.10
2018-03-29T23:41:46.609Z,92.50
2018-03-29T23:44:14.281Z,92.42
2018-03-29T23:46:43.244Z,92.50
2018-03-29T23:49:11.076Z,92.49
2018-03-29T23:51:38.701Z,92.71
2018-03-29T23:54:06.347Z,92.28
2018-03-29T23:56:33.955Z,92.00
2018-03-29T23:59:01.592Z,91.90
